Time;durP1;ratioP1;P1;durP2;ratioP2;P2;SDS_P1;SDS_P2;PMS_P1;PMS_P2;Temp;Humidity;BMP_temperature;BMP_pressure;BME280_temperature;BME280_humidity;BME280_pressure;Samples;Min_cycle;Max_cycle;Signal;HPM_P1;HPM_P2
2022/04/16 00:00:06;;;;;;;1.92;1.63;;;9.60;98.40;;;;;;4960338;29;20082;-87
2022/04/16 00:02:34;;;;;;;1.63;1.52;;;9.50;99.20;;;;;;4954610;28;20388;-87
2022/04/16 00:05:00;;;;;;;1.48;1.38;;;9.50;99.90;;;;;;4954535;28;20130;-87
2022/04/16 00:07:32;;;;;;;3.60;1.48;;;9.40;99.90;;;;;;4953829;28;20086;-87
2022/04/16 00:09:59;;;;;;;1.85;1.63;;;9.30;99.90;;;;;;4936967;29;20118;-87
2022/04/16 00:12:26;;;;;;;1.60;1.50;;;9.40;99.90;;;;;;4953323;28;20035;-87
2022/04/16 00:14:51;;;;;;;1.98;1.60;;;9.30;99.90;;;;;;4954090;29;20396;-87
2022/04/16 00:17:17;;;;;;;1.75;1.50;;;9.20;99.90;;;;;;4953937;28;20058;-88
2022/04/16 00:19:43;;;;;;;3.50;1.88;;;9.20;99.90;;;;;;4936931;29;20050;-87
2022/04/16 00:22:12;;;;;;;2.03;1.67;;;9.10;99.90;;;;;;4953782;28;20038;-86
2022/04/16 00:24:41;;;;;;;6.00;1.98;;;9.10;99.90;;;;;;4936483;29;20122;-88
2022/04/16 00:27:09;;;;;;;3.65;1.70;;;9.20;99.90;;;;;;4936306;29;20031;-87
2022/04/16 00:29:36;;;;;;;4.20;1.42;;;9.10;99.90;;;;;;4935452;29;20024;-87
2022/04/16 00:32:04;;;;;;;1.98;1.58;;;9.00;99.90;;;;;;4936290;29;20066;-86
2022/04/16 00:34:33;;;;;;;2.47;1.63;;;9.00;99.90;;;;;;4952290;29;20023;-87
2022/04/16 00:37:02;;;;;;;3.28;1.42;;;9.00;99.90;;;;;;4953643;29;20052;-87
2022/04/16 00:39:30;;;;;;;3.22;1.60;;;9.00;99.90;;;;;;4936201;29;20031;-87
2022/04/16 00:41:56;;;;;;;1.58;1.45;;;9.00;99.90;;;;;;4935892;29;20511;-87
2022/04/16 00:44:23;;;;;;;6.15;1.73;;;8.90;99.90;;;;;;4953728;29;20031;-87
2022/04/16 00:46:49;;;;;;;1.73;1.60;;;8.90;99.90;;;;;;4936179;29;20031;-87
2022/04/16 00:49:15;;;;;;;4.47;1.60;;;8.90;99.90;;;;;;4936016;29;20035;-87
2022/04/16 00:51:46;;;;;;;2.03;1.55;;;8.90;99.90;;;;;;4936182;29;20031;-86
2022/04/16 00:54:12;;;;;;;1.83;1.58;;;8.90;99.90;;;;;;4936122;29;20037;-86
2022/04/16 00:56:38;;;;;;;2.20;1.83;;;8.80;99.90;;;;;;4956573;29;20561;-87
2022/04/16 00:59:04;;;;;;;3.60;1.80;;;8.70;99.90;;;;;;4939644;29;20027;-87
2022/04/16 01:01:31;;;;;;;3.70;1.80;;;8.70;99.90;;;;;;4941709;28;20026;-88
2022/04/16 01:04:01;;;;;;;2.15;1.65;;;8.70;99.90;;;;;;4958723;28;20034;-87
2022/04/16 01:06:37;;;;;;;2.70;2.05;;;8.70;99.90;;;;;;4975968;28;20033;-88
2022/04/16 01:09:03;;;;;;;2.28;1.70;;;8.70;99.90;;;;;;4976125;28;20522;-86
2022/04/16 01:11:35;;;;;;;3.13;1.70;;;8.70;99.90;;;;;;4975479;28;20357;-87
2022/04/16 01:14:01;;;;;;;3.17;1.92;;;8.70;99.90;;;;;;4976008;28;20118;-88
2022/04/16 01:16:31;;;;;;;1.98;1.70;;;8.60;99.90;;;;;;4958173;28;20031;-87
2022/04/16 01:18:57;;;;;;;2.10;1.88;;;8.60;99.90;;;;;;4943696;29;20031;-87
2022/04/16 01:21:23;;;;;;;1.63;1.50;;;8.40;99.90;;;;;;4956347;28;20546;-87
2022/04/16 01:23:50;;;;;;;3.05;1.73;;;8.40;99.90;;;;;;4956469;29;20036;-87
2022/04/16 01:26:15;;;;;;;2.47;1.80;;;8.30;99.90;;;;;;4938945;29;20031;-86
2022/04/16 01:28:41;;;;;;;4.72;1.50;;;8.30;99.90;;;;;;4955153;29;20043;-87
2022/04/16 01:31:13;;;;;;;2.67;2.10;;;8.30;99.90;;;;;;4940665;29;20086;-90
2022/04/16 01:33:39;;;;;;;2.72;1.65;;;8.30;99.90;;;;;;4979033;29;20019;-89
2022/04/16 01:36:05;;;;;;;2.63;1.83;;;8.30;99.90;;;;;;4956774;29;20023;-87
2022/04/16 01:38:31;;;;;;;1.50;1.40;;;8.20;99.90;;;;;;4939487;29;20031;-88
2022/04/16 01:40:59;;;;;;;2.85;1.77;;;8.20;99.90;;;;;;4938958;29;20035;-86
2022/04/16 01:43:25;;;;;;;1.90;1.55;;;8.20;99.90;;;;;;4939057;29;20023;-86
2022/04/16 01:45:55;;;;;;;11.95;2.13;;;8.30;99.90;;;;;;4956270;29;20122;-86
2022/04/16 01:48:22;;;;;;;3.75;1.70;;;8.20;99.90;;;;;;4956199;29;20023;-87
2022/04/16 01:50:48;;;;;;;2.33;1.65;;;8.20;99.90;;;;;;4956100;29;20078;-87
2022/04/16 01:53:14;;;;;;;2.20;1.67;;;8.10;99.90;;;;;;4956768;28;20054;-85
2022/04/16 01:55:40;;;;;;;2.20;1.50;;;8.00;99.90;;;;;;4966644;29;20039;-88
2022/04/16 01:58:09;;;;;;;4.05;1.85;;;8.00;99.90;;;;;;4957713;29;20031;-87
2022/04/16 02:00:35;;;;;;;4.13;1.52;;;8.00;99.90;;;;;;4955697;29;20059;-87
2022/04/16 02:03:01;;;;;;;3.00;1.83;;;7.90;99.90;;;;;;4956075;28;20039;-87
2022/04/16 02:05:27;;;;;;;1.75;1.65;;;7.90;99.90;;;;;;4938792;28;20023;-87
2022/04/16 02:07:55;;;;;;;2.03;1.73;;;7.90;99.90;;;;;;4938828;29;20024;-87
2022/04/16 02:10:21;;;;;;;3.15;2.13;;;8.00;99.90;;;;;;4938290;28;20032;-87
2022/04/16 02:12:46;;;;;;;5.78;2.13;;;7.90;99.90;;;;;;4956105;28;20090;-87
2022/04/16 02:15:15;;;;;;;2.47;2.08;;;7.80;99.90;;;;;;4955887;28;20424;-86
2022/04/16 02:17:44;;;;;;;2.88;2.05;;;7.80;99.90;;;;;;4955262;28;20023;-87
2022/04/16 02:20:10;;;;;;;1.92;1.77;;;7.80;99.90;;;;;;4955301;29;20035;-86
2022/04/16 02:22:44;;;;;;;7.57;1.95;;;7.70;99.90;;;;;;4938143;29;20027;-87
2022/04/16 02:25:12;;;;;;;1.92;1.75;;;7.70;99.90;;;;;;4938495;29;20027;-86
2022/04/16 02:27:41;;;;;;;1.98;1.77;;;7.60;99.90;;;;;;4937805;29;20086;-88
2022/04/16 02:30:09;;;;;;;2.95;1.88;;;7.60;99.90;;;;;;4954353;29;20030;-88
2022/04/16 02:32:44;;;;;;;2.28;2.00;;;7.60;99.90;;;;;;4955029;28;20049;-88
2022/04/16 02:35:13;;;;;;;1.63;1.52;;;7.60;99.90;;;;;;4955389;29;20027;-85
2022/04/16 02:37:42;;;;;;;1.90;1.67;;;7.50;99.90;;;;;;4938018;29;20023;-88
2022/04/16 02:40:11;;;;;;;9.98;1.80;;;7.50;99.90;;;;;;4937779;29;20462;-87
2022/04/16 02:42:43;;;;;;;3.92;1.70;;;7.40;99.90;;;;;;4954831;28;20568;-87
2022/04/16 02:47:58;;;;;;;4.53;1.95;;;7.30;99.90;;;;;;4955347;29;20451;-87
2022/04/16 02:50:25;;;;;;;3.40;2.25;;;7.20;99.90;;;;;;4954732;29;20437;-87
2022/04/16 02:52:55;;;;;;;2.10;1.63;;;7.20;99.90;;;;;;4937607;29;20554;-87
2022/04/16 02:55:22;;;;;;;3.50;1.90;;;7.20;99.90;;;;;;4954874;29;20103;-87
2022/04/16 02:57:49;;;;;;;2.58;2.00;;;7.20;99.90;;;;;;4954408;29;20299;-87
2022/04/16 03:00:20;;;;;;;3.15;2.03;;;7.10;99.90;;;;;;4937382;29;20020;-87
2022/04/16 03:02:49;;;;;;;2.83;2.03;;;7.10;99.90;;;;;;4954610;28;20023;-87
2022/04/16 03:05:18;;;;;;;4.20;2.20;;;7.10;99.90;;;;;;4954535;28;20031;-87
2022/04/16 03:07:46;;;;;;;1.83;1.70;;;7.10;99.90;;;;;;4954534;28;20023;-87
2022/04/16 03:10:12;;;;;;;4.22;1.80;;;7.10;99.90;;;;;;4954130;28;20102;-86
2022/04/16 03:12:52;;;;;;;4.00;1.75;;;7.10;99.90;;;;;;4937163;29;20460;-87
2022/04/16 03:18:07;;;;;;;3.47;2.03;;;7.00;99.90;;;;;;4954232;28;20502;-87
2022/04/16 03:20:33;;;;;;;3.67;2.30;;;7.00;99.90;;;;;;4954108;29;20518;-87
2022/04/16 03:22:59;;;;;;;3.00;2.03;;;7.00;99.90;;;;;;4954226;28;20109;-87
2022/04/16 03:25:27;;;;;;;2.40;1.95;;;7.10;99.90;;;;;;4954018;29;20444;-87
2022/04/16 03:27:56;;;;;;;4.70;2.33;;;7.10;99.90;;;;;;4954032;29;20028;-87
2022/04/16 03:30:23;;;;;;;2.80;2.53;;;7.10;99.90;;;;;;4951596;29;20392;-87
2022/04/16 03:32:50;;;;;;;4.55;2.33;;;7.10;99.90;;;;;;4953950;28;20412;-87
2022/04/16 03:35:18;;;;;;;3.33;2.22;;;7.10;99.90;;;;;;4937513;29;20023;-87
2022/04/16 03:37:44;;;;;;;3.20;2.38;;;7.10;99.90;;;;;;4953649;29;20546;-88
2022/04/16 03:40:10;;;;;;;4.10;2.13;;;7.10;99.90;;;;;;4950160;29;20079;-87
2022/04/16 03:42:48;;;;;;;2.83;2.20;;;7.00;99.90;;;;;;4967068;28;20031;-87
2022/04/16 03:45:25;;;;;;;4.20;2.25;;;7.00;99.90;;;;;;4954756;29;20027;-87
2022/04/16 03:47:52;;;;;;;8.88;2.08;;;6.90;99.90;;;;;;4954452;29;20031;-87
2022/04/16 03:50:19;;;;;;;2.22;1.85;;;7.00;99.90;;;;;;4938328;29;20027;-89
2022/04/16 03:52:47;;;;;;;3.15;1.77;;;6.90;99.90;;;;;;4964706;23;20046;-87
2022/04/16 04:00:49;;;;;;;4.15;2.13;;;6.80;99.90;;;;;;4973341;28;19957;-86
2022/04/16 04:03:15;;;;;;;2.95;2.30;;;6.80;99.90;;;;;;4971849;28;20023;-87
2022/04/16 04:05:42;;;;;;;2.13;1.90;;;6.80;99.90;;;;;;4971917;28;20093;-87
2022/04/16 04:08:09;;;;;;;2.72;2.03;;;6.80;99.90;;;;;;4971769;28;20106;-87
2022/04/16 04:10:35;;;;;;;4.28;2.28;;;6.70;99.90;;;;;;4972852;28;20510;-87
2022/04/16 04:13:01;;;;;;;2.97;2.20;;;6.70;99.90;;;;;;4973119;28;20040;-88
2022/04/16 04:15:29;;;;;;;3.30;2.70;;;6.70;99.90;;;;;;4956000;28;20392;-87
2022/04/16 04:17:55;;;;;;;4.55;2.70;;;6.70;99.90;;;;;;4958767;28;20042;-87
2022/04/16 04:20:21;;;;;;;2.80;2.50;;;6.70;99.90;;;;;;4972882;28;20027;-87
2022/04/16 04:22:46;;;;;;;5.28;3.05;;;6.70;99.90;;;;;;4972028;28;20019;-86
2022/04/16 04:25:12;;;;;;;2.45;2.03;;;6.80;99.90;;;;;;4973269;28;20082;-86
2022/04/16 04:27:37;;;;;;;3.08;2.78;;;6.70;99.90;;;;;;4971920;28;20458;-87
2022/04/16 04:30:05;;;;;;;2.83;2.53;;;6.60;99.90;;;;;;4973076;28;20051;-87
2022/04/16 04:32:31;;;;;;;2.90;2.60;;;6.70;99.90;;;;;;4977023;28;20027;-87
2022/04/16 04:34:57;;;;;;;2.50;2.30;;;6.70;99.90;;;;;;4977170;28;20089;-87
2022/04/16 04:37:23;;;;;;;3.08;2.20;;;6.70;99.90;;;;;;4977020;28;20022;-87
2022/04/16 04:39:49;;;;;;;4.28;2.60;;;6.60;99.90;;;;;;4977481;28;20109;-87
2022/04/16 04:42:32;;;;;;;4.40;2.88;;;6.60;99.90;;;;;;4976627;28;20034;-87
2022/04/16 04:44:58;;;;;;;8.68;2.60;;;6.60;99.90;;;;;;4976757;28;20034;-87
2022/04/16 04:47:24;;;;;;;8.95;2.90;;;6.70;99.90;;;;;;4976651;28;20118;-86
2022/04/16 04:49:50;;;;;;;9.88;2.90;;;6.60;99.90;;;;;;4975517;28;20030;-87
2022/04/16 04:52:26;;;;;;;4.57;2.80;;;6.60;99.90;;;;;;4975075;28;20406;-86
2022/04/16 04:54:56;;;;;;;7.13;3.45;;;6.60;99.90;;;;;;4976949;28;20027;-88
2022/04/16 04:57:22;;;;;;;4.43;3.05;;;6.60;99.90;;;;;;4974988;28;20031;-88
2022/04/16 04:59:48;;;;;;;5.65;2.90;;;6.70;99.90;;;;;;4976312;28;20034;-87
2022/04/16 05:02:13;;;;;;;3.45;2.80;;;6.70;99.90;;;;;;4975884;28;20027;-85
2022/04/16 05:04:39;;;;;;;3.83;3.30;;;6.70;99.90;;;;;;4976815;28;20023;-87
2022/04/16 05:07:05;;;;;;;11.32;3.20;;;6.80;99.90;;;;;;4959006;28;20027;-86
2022/04/16 05:09:31;;;;;;;5.43;3.38;;;6.80;99.90;;;;;;4976501;28;20475;-87
2022/04/16 05:11:57;;;;;;;7.00;3.35;;;6.80;99.90;;;;;;4958742;28;20026;-87
2022/04/16 05:14:23;;;;;;;4.85;3.35;;;6.80;99.90;;;;;;4976292;28;20030;-84
2022/04/16 05:16:49;;;;;;;5.03;3.60;;;6.80;99.90;;;;;;4976237;28;20030;-87
2022/04/16 05:19:16;;;;;;;4.30;3.22;;;6.80;99.90;;;;;;4973156;28;20054;-87
2022/04/16 05:21:42;;;;;;;4.47;3.05;;;6.90;99.90;;;;;;4975000;28;20147;-87
2022/04/16 05:24:09;;;;;;;4.72;3.58;;;6.90;99.90;;;;;;4976557;28;20109;-87
2022/04/16 05:26:35;;;;;;;4.63;2.97;;;6.90;99.90;;;;;;4975965;28;20023;-87
2022/04/16 05:29:01;;;;;;;4.68;3.03;;;6.90;99.90;;;;;;4975510;28;20046;-87
2022/04/16 05:31:30;;;;;;;5.97;3.28;;;7.00;99.90;;;;;;4977792;28;20023;-87
2022/04/16 05:36:40;;;;;;;5.05;3.22;;;7.10;99.90;;;;;;4976099;28;20164;-86
2022/04/16 05:39:06;;;;;;;3.65;2.72;;;7.10;99.90;;;;;;4976141;28;20113;-87
2022/04/16 05:41:35;;;;;;;5.78;3.38;;;7.10;99.90;;;;;;4974196;28;20031;-86
2022/04/16 05:44:02;;;;;;;8.20;5.07;;;7.20;99.90;;;;;;4976330;28;20082;-89
2022/04/16 05:46:28;;;;;;;6.93;3.50;;;7.20;99.90;;;;;;4975855;28;20077;-87
2022/04/16 05:48:53;;;;;;;6.13;3.78;;;7.30;99.90;;;;;;4975694;28;20387;-86
2022/04/16 05:51:21;;;;;;;4.85;3.53;;;7.30;99.90;;;;;;4974481;28;20121;-87
2022/04/16 05:53:48;;;;;;;5.60;3.67;;;7.30;99.90;;;;;;4974186;28;20030;-86
2022/04/16 05:56:14;;;;;;;5.10;3.60;;;7.40;99.90;;;;;;4975684;28;20114;-85
2022/04/16 05:58:43;;;;;;;4.93;3.72;;;7.50;99.90;;;;;;4974363;28;20070;-86
2022/04/16 06:01:10;;;;;;;5.18;3.80;;;7.60;99.90;;;;;;4969819;28;20472;-84
2022/04/16 06:03:37;;;;;;;6.50;4.28;;;7.60;99.90;;;;;;4975355;28;20141;-84
2022/04/16 06:06:11;;;;;;;6.63;4.45;;;7.70;99.90;;;;;;4975243;28;20030;-87
2022/04/16 06:08:37;;;;;;;6.45;4.00;;;7.80;99.90;;;;;;4975679;28;20022;-87
2022/04/16 06:11:06;;;;;;;5.65;4.07;;;7.90;99.90;;;;;;4975798;28;20499;-87
2022/04/16 06:13:32;;;;;;;6.43;4.40;;;7.90;99.90;;;;;;4958803;28;20030;-87
2022/04/16 06:15:58;;;;;;;9.15;4.05;;;8.00;99.90;;;;;;4975947;28;20042;-86
2022/04/16 06:18:24;;;;;;;10.52;5.07;;;8.00;99.90;;;;;;4975577;28;20546;-87
2022/04/16 06:20:50;;;;;;;6.32;4.38;;;8.10;99.90;;;;;;4975541;28;20122;-85
2022/04/16 06:23:18;;;;;;;6.18;4.28;;;8.20;99.90;;;;;;4974637;28;20027;-87
2022/04/16 06:25:43;;;;;;;6.78;4.45;;;8.30;99.90;;;;;;4973952;28;20039;-87
2022/04/16 06:28:09;;;;;;;7.75;4.95;;;8.40;99.90;;;;;;4975387;28;20035;-87
2022/04/16 06:30:35;;;;;;;7.97;4.15;;;8.50;99.90;;;;;;4972997;28;20031;-86
2022/04/16 06:33:00;;;;;;;8.40;4.90;;;8.60;99.90;;;;;;4974024;28;20442;-89
2022/04/16 06:35:26;;;;;;;7.57;4.25;;;8.70;99.90;;;;;;4974282;28;20030;-87
2022/04/16 06:37:51;;;;;;;14.02;4.85;;;8.80;99.90;;;;;;4974109;28;20031;-87
2022/04/16 06:40:17;;;;;;;5.80;4.03;;;8.90;99.90;;;;;;4974551;28;20031;-87
2022/04/16 06:42:43;;;;;;;7.97;4.47;;;9.00;99.90;;;;;;4975027;28;20153;-87
2022/04/16 06:45:10;;;;;;;7.05;4.38;;;9.10;99.90;;;;;;4974751;28;20054;-88
2022/04/16 06:47:36;;;;;;;4.75;3.85;;;9.20;99.90;;;;;;4974594;28;20027;-87
2022/04/16 06:50:03;;;;;;;5.88;4.38;;;9.30;99.90;;;;;;4973151;28;20407;-86
2022/04/16 06:52:29;;;;;;;5.72;4.00;;;9.50;99.90;;;;;;4973202;28;20499;-87
2022/04/16 06:54:58;;;;;;;7.57;4.03;;;9.60;99.90;;;;;;4974619;28;20035;-87
2022/04/16 06:57:25;;;;;;;5.38;3.85;;;9.60;99.90;;;;;;4973163;28;20061;-85
2022/04/16 06:59:50;;;;;;;4.95;4.13;;;9.60;99.90;;;;;;4972924;28;20034;-87
2022/04/16 07:02:16;;;;;;;4.80;3.88;;;9.60;99.90;;;;;;4974242;28;20026;-87
2022/04/16 07:04:42;;;;;;;5.00;3.80;;;9.60;99.90;;;;;;4956966;28;20070;-87
2022/04/16 07:07:08;;;;;;;5.60;3.88;;;9.70;99.90;;;;;;4956748;28;20031;-87
2022/04/16 07:09:38;;;;;;;5.40;3.90;;;9.80;99.90;;;;;;4974680;28;20093;-87
2022/04/16 07:12:06;;;;;;;5.97;3.67;;;9.90;99.90;;;;;;4956262;28;20023;-87
2022/04/16 07:14:31;;;;;;;5.47;4.03;;;9.90;99.90;;;;;;4974091;28;20391;-89
2022/04/16 07:16:57;;;;;;;5.80;4.03;;;10.10;99.90;;;;;;4974737;28;20027;-87
2022/04/16 07:19:22;;;;;;;6.97;3.30;;;10.10;99.90;;;;;;4973931;28;20027;-87
2022/04/16 07:21:48;;;;;;;5.03;3.63;;;10.20;99.90;;;;;;4973559;28;20023;-87
2022/04/16 07:24:13;;;;;;;4.82;3.88;;;10.20;99.90;;;;;;4973906;28;20034;-88
2022/04/16 07:26:39;;;;;;;4.90;3.30;;;10.10;99.90;;;;;;4975433;28;20372;-87
2022/04/16 07:29:05;;;;;;;6.57;3.10;;;10.30;99.90;;;;;;4972946;28;20110;-87
2022/04/16 07:31:30;;;;;;;5.38;3.42;;;10.40;99.90;;;;;;4973452;28;20029;-86
2022/04/16 07:33:56;;;;;;;4.55;2.80;;;10.50;99.90;;;;;;4972638;28;20034;-89
2022/04/16 07:36:21;;;;;;;5.13;3.17;;;10.40;99.90;;;;;;4973741;28;20448;-86
2022/04/16 07:38:47;;;;;;;4.13;2.95;;;10.50;99.90;;;;;;4973863;28;20077;-86
2022/04/16 07:41:12;;;;;;;3.45;3.13;;;10.60;99.90;;;;;;4973668;28;20026;-85
2022/04/16 07:43:38;;;;;;;7.13;3.40;;;10.70;99.90;;;;;;4973933;28;20027;-89
2022/04/16 07:46:04;;;;;;;4.60;3.03;;;10.70;99.90;;;;;;4973832;28;20110;-88
2022/04/16 07:48:29;;;;;;;4.50;2.70;;;10.70;99.90;;;;;;4973715;28;20027;-86
2022/04/16 07:50:55;;;;;;;3.67;2.60;;;10.80;99.90;;;;;;4971989;28;20027;-88
2022/04/16 07:53:20;;;;;;;4.07;2.47;;;11.00;99.20;;;;;;4973407;28;20066;-88
2022/04/16 07:55:47;;;;;;;5.38;2.35;;;11.10;97.80;;;;;;4973253;28;20031;-85
2022/04/16 07:58:13;;;;;;;3.00;2.33;;;11.30;97.50;;;;;;4972093;28;20521;-87
2022/04/16 08:00:39;;;;;;;3.80;2.08;;;11.40;94.20;;;;;;4971722;28;20096;-88
2022/04/16 08:03:05;;;;;;;4.00;2.42;;;11.40;93.40;;;;;;4955939;28;20074;-87
2022/04/16 08:05:31;;;;;;;3.45;2.60;;;11.50;94.00;;;;;;4972886;28;20023;-87
2022/04/16 08:07:57;;;;;;;4.20;2.20;;;11.60;93.10;;;;;;4972934;28;20034;-87
2022/04/16 08:10:23;;;;;;;2.88;2.33;;;11.50;92.80;;;;;;4955407;28;20054;-87
2022/04/16 08:12:49;;;;;;;4.35;2.30;;;11.50;92.30;;;;;;4973284;28;20026;-89
2022/04/16 08:15:14;;;;;;;3.33;2.28;;;11.40;91.60;;;;;;4956087;28;20023;-86
2022/04/16 08:17:40;;;;;;;4.72;2.60;;;11.40;92.30;;;;;;4956836;28;20081;-86
2022/04/16 08:20:07;;;;;;;2.83;2.22;;;11.40;92.00;;;;;;4972710;28;20023;-88
2022/04/16 08:22:34;;;;;;;3.20;2.25;;;11.50;91.90;;;;;;4973484;28;20031;-87
2022/04/16 08:27:51;;;;;;;3.58;2.05;;;11.60;91.00;;;;;;4972927;28;20105;-85
2022/04/16 08:30:17;;;;;;;3.20;2.30;;;11.70;91.00;;;;;;4972006;28;20041;-87
2022/04/16 08:32:44;;;;;;;2.33;1.90;;;11.90;90.30;;;;;;4972787;28;20050;-87
2022/04/16 08:35:11;;;;;;;3.72;2.15;;;11.90;89.30;;;;;;4972912;28;20097;-86
2022/04/16 08:37:37;;;;;;;4.65;2.63;;;12.10;87.70;;;;;;4971569;28;20035;-84
2022/04/16 08:40:05;;;;;;;4.20;2.30;;;12.20;86.40;;;;;;4972607;28;20038;-88
2022/04/16 08:42:34;;;;;;;3.90;2.20;;;12.10;86.60;;;;;;4973061;28;20048;-86
2022/04/16 08:45:01;;;;;;;4.15;2.38;;;12.10;84.80;;;;;;4973086;28;20109;-85
2022/04/16 08:47:27;;;;;;;5.15;2.45;;;12.10;84.20;;;;;;4972436;28;20042;-88
2022/04/16 08:49:53;;;;;;;3.67;2.70;;;12.00;84.50;;;;;;4971699;28;20023;-87
2022/04/16 08:52:20;;;;;;;2.60;2.13;;;11.90;85.40;;;;;;4972256;28;20403;-87
2022/04/16 08:54:46;;;;;;;3.45;2.10;;;12.10;85.30;;;;;;4973240;28;20081;-89
2022/04/16 08:57:11;;;;;;;2.63;2.15;;;12.10;84.50;;;;;;4971185;28;20435;-87
2022/04/16 08:59:37;;;;;;;5.93;2.00;;;12.30;83.80;;;;;;4971416;28;20030;-88
2022/04/16 09:02:04;;;;;;;2.92;1.98;;;12.40;82.90;;;;;;4959863;28;20035;-87
2022/04/16 09:04:32;;;;;;;3.47;2.00;;;12.40;82.60;;;;;;4972875;28;20042;-88
2022/04/16 09:07:03;;;;;;;2.63;2.17;;;12.30;82.80;;;;;;4972552;28;20130;-89
2022/04/16 09:09:29;;;;;;;2.67;2.20;;;12.40;82.40;;;;;;4972842;28;20106;-87
2022/04/16 09:11:55;;;;;;;4.80;1.88;;;12.40;81.00;;;;;;4972107;28;20101;-90
2022/04/16 09:14:37;;;;;;;2.13;1.63;;;12.50;80.40;;;;;;4972489;28;20026;-88
2022/04/16 09:17:09;;;;;;;3.70;1.75;;;12.70;78.30;;;;;;4957616;28;20121;-85
2022/04/16 09:19:35;;;;;;;2.85;1.92;;;12.60;77.00;;;;;;4939561;29;20050;-85
2022/04/16 09:22:01;;;;;;;1.42;1.30;;;12.70;78.40;;;;;;4958699;28;20399;-85
2022/04/16 09:24:26;;;;;;;2.50;1.65;;;12.90;74.80;;;;;;4956928;29;20125;-85
2022/04/16 09:26:52;;;;;;;1.35;1.20;;;13.00;74.10;;;;;;4956517;28;20106;-88
2022/04/16 09:29:18;;;;;;;1.38;1.13;;;13.20;72.40;;;;;;4956152;28;20024;-85
2022/04/16 09:31:49;;;;;;;1.63;1.08;;;13.20;70.80;;;;;;4956212;29;20078;-88
2022/04/16 09:34:19;;;;;;;1.20;1.10;;;13.20;68.70;;;;;;4956486;28;20059;-86
2022/04/16 09:36:47;;;;;;;1.10;1.00;;;13.10;68.00;;;;;;4956147;29;20114;-87
2022/04/16 09:39:13;;;;;;;1.75;1.15;;;13.20;68.30;;;;;;4956624;29;20039;-87
2022/04/16 09:41:46;;;;;;;1.33;1.20;;;13.30;67.70;;;;;;4956473;28;20435;-89
2022/04/16 09:44:28;;;;;;;3.20;1.10;;;13.40;66.70;;;;;;4957062;28;20024;-86
2022/04/16 09:46:55;;;;;;;1.45;0.90;;;13.40;66.90;;;;;;4956722;29;20027;-86
2022/04/16 09:49:22;;;;;;;1.23;1.00;;;13.40;66.80;;;;;;4956584;28;20102;-85
2022/04/16 09:51:48;;;;;;;0.85;0.80;;;13.50;67.70;;;;;;4956614;28;20020;-87
2022/04/16 09:54:15;;;;;;;1.52;1.10;;;13.70;66.40;;;;;;4984011;23;20066;-89
2022/04/16 09:56:42;;;;;;;0.80;0.80;;;13.90;66.00;;;;;;4956195;28;20042;-90
2022/04/16 09:59:14;;;;;;;0.90;0.90;;;14.10;65.20;;;;;;4955823;29;20035;-89
2022/04/16 10:02:03;;;;;;;1.00;0.90;;;14.10;64.10;;;;;;4954438;28;20391;-89
2022/04/16 10:04:30;;;;;;;2.28;0.95;;;14.20;62.90;;;;;;4955237;29;20082;-87
2022/04/16 10:07:01;;;;;;;1.88;1.70;;;14.20;63.00;;;;;;4938210;29;20050;-86
2022/04/16 10:09:28;;;;;;;;;;;14.20;62.10;;;;;;4939192;29;20023;-89
2022/04/16 10:14:53;;;;;;;1.80;0.88;;;14.20;62.10;;;;;;4926657;29;20024;-89
2022/04/16 10:17:35;;;;;;;1.42;0.90;;;14.00;62.80;;;;;;4936547;29;20114;-91
2022/04/16 10:20:11;;;;;;;1.42;0.90;;;14.10;61.80;;;;;;4947536;28;20031;-90
2022/04/16 10:22:51;;;;;;;1.00;0.90;;;14.10;61.50;;;;;;4957512;28;20023;-89
2022/04/16 10:25:32;;;;;;;0.90;0.85;;;14.10;61.60;;;;;;4937468;29;20028;-89
2022/04/16 10:28:06;;;;;;;1.50;0.90;;;13.90;62.90;;;;;;4938861;29;20415;-89
2022/04/16 10:30:54;;;;;;;0.80;0.80;;;13.80;63.10;;;;;;4955049;28;20027;-89
2022/04/16 10:33:25;;;;;;;1.08;0.85;;;14.00;62.30;;;;;;4938786;29;20024;-89
2022/04/16 10:36:02;;;;;;;1.38;0.88;;;14.10;62.00;;;;;;4956480;28;20151;-90
2022/04/16 10:38:39;;;;;;;2.42;0.60;;;14.30;60.80;;;;;;4939232;29;20038;-88
2022/04/16 10:41:18;;;;;;;1.08;0.80;;;14.40;59.90;;;;;;4938942;29;20019;-88
2022/04/16 10:44:01;;;;;;;1.17;1.08;;;14.60;60.00;;;;;;4938883;29;20492;-88
2022/04/16 10:46:45;;;;;;;0.85;0.82;;;14.30;60.10;;;;;;4938081;29;20067;-89
2022/04/16 10:49:16;;;;;;;1.65;0.70;;;14.30;60.70;;;;;;4938325;29;20024;-88
2022/04/16 10:51:52;;;;;;;1.43;0.87;;;14.00;60.60;;;;;;4937959;29;20042;-88
2022/04/16 10:54:34;;;;;;;0.98;0.88;;;14.00;60.80;;;;;;4954948;28;20318;-89
2022/04/16 10:57:25;;;;;;;1.15;1.00;;;14.00;60.20;;;;;;4937652;29;20120;-89
2022/04/16 10:59:58;;;;;;;1.27;0.80;;;13.90;60.10;;;;;;4954591;29;20047;-88
2022/04/16 11:02:30;;;;;;;2.55;0.70;;;14.00;59.90;;;;;;4943936;29;20090;-88
2022/04/16 11:05:05;;;;;;;1.25;1.00;;;14.10;59.10;;;;;;4934664;29;20032;-87
2022/04/16 11:07:35;;;;;;;1.20;0.80;;;14.00;59.60;;;;;;4934394;29;20028;-89
2022/04/16 11:10:05;;;;;;;0.90;0.90;;;14.00;60.20;;;;;;4934312;29;20024;-86
2022/04/16 11:12:36;;;;;;;4.37;0.80;;;13.90;60.70;;;;;;4935597;29;20027;-89
2022/04/16 11:15:07;;;;;;;1.50;1.08;;;14.00;60.60;;;;;;4936128;29;20031;-88
2022/04/16 11:17:35;;;;;;;1.95;1.15;;;14.20;59.50;;;;;;4939603;29;20031;-89
2022/04/16 11:20:04;;;;;;;2.15;0.80;;;14.40;59.40;;;;;;4955746;28;20092;-86
2022/04/16 11:22:30;;;;;;;1.08;0.85;;;14.30;59.20;;;;;;4955130;28;20395;-88
2022/04/16 11:25:00;;;;;;;0.80;0.80;;;14.20;59.70;;;;;;4955148;28;20023;-89
2022/04/16 11:36:02;;;;;;;0.63;0.63;;;14.80;59.00;;;;;;4955523;29;20029;-89
2022/04/16 11:38:35;;;;;;;1.10;0.80;;;14.80;57.90;;;;;;4937335;29;20492;-89
2022/04/16 11:41:04;;;;;;;1.25;0.90;;;14.90;57.70;;;;;;4953818;28;20090;-89
2022/04/16 11:43:51;;;;;;;1.00;1.00;;;14.90;57.80;;;;;;4955414;28;20097;-93
2022/04/16 11:46:22;;;;;;;0.80;0.70;;;15.50;56.80;;;;;;4945258;28;20063;-90
2022/04/16 11:48:50;;;;;;;0.65;0.65;;;16.20;55.30;;;;;;4937610;29;20027;-89
2022/04/16 11:51:20;;;;;;;2.00;1.10;;;16.50;52.30;;;;;;4962465;28;20023;-89
2022/04/16 11:53:56;;;;;;;1.15;0.77;;;16.70;52.70;;;;;;4937289;29;20046;-88
2022/04/16 11:56:25;;;;;;;1.10;1.00;;;17.20;51.00;;;;;;4936743;29;20126;-89
2022/04/16 11:58:51;;;;;;;1.02;0.90;;;17.50;51.10;;;;;;4936686;29;20118;-90
2022/04/16 12:01:26;;;;;;;1.48;1.23;;;17.60;50.90;;;;;;4934771;29;20385;-90
2022/04/16 12:03:52;;;;;;;1.00;1.00;;;17.90;49.50;;;;;;4934659;29;20093;-89
2022/04/16 12:06:18;;;;;;;1.33;1.20;;;17.60;49.90;;;;;;4934167;29;20042;-89
2022/04/16 12:08:48;;;;;;;1.55;0.70;;;17.30;49.90;;;;;;4935602;29;20036;-89
2022/04/16 12:11:19;;;;;;;2.00;1.13;;;17.30;51.40;;;;;;4934870;29;20019;-89
2022/04/16 12:13:49;;;;;;;1.05;0.90;;;17.30;49.70;;;;;;4933944;29;20079;-89
2022/04/16 12:16:15;;;;;;;1.13;0.80;;;17.40;50.20;;;;;;4935308;29;20028;-90
2022/04/16 12:18:43;;;;;;;1.30;0.90;;;17.40;50.50;;;;;;4947919;29;20091;-88
2022/04/16 12:21:12;;;;;;;1.65;1.20;;;17.50;49.60;;;;;;4953650;28;20114;-88
2022/04/16 12:23:40;;;;;;;1.27;1.05;;;17.60;49.20;;;;;;4954017;28;20086;-88
2022/04/16 12:26:10;;;;;;;1.27;1.15;;;17.60;49.00;;;;;;4936515;29;20498;-88
2022/04/16 12:28:41;;;;;;;1.58;1.02;;;17.60;48.10;;;;;;4936097;29;20130;-88
2022/04/16 12:31:07;;;;;;;1.00;0.75;;;17.70;49.00;;;;;;4936441;29;20023;-88
2022/04/16 12:33:36;;;;;;;2.35;0.93;;;17.70;47.70;;;;;;4936636;29;20208;-85
2022/04/16 12:36:02;;;;;;;2.67;0.98;;;17.70;46.90;;;;;;4953641;28;20043;-87
2022/04/16 12:38:28;;;;;;;1.55;1.13;;;17.60;47.60;;;;;;4936324;29;20023;-86
2022/04/16 12:41:10;;;;;;;2.92;1.10;;;17.40;47.20;;;;;;4936237;29;20019;-87
2022/04/16 12:43:37;;;;;;;1.00;0.90;;;17.70;47.90;;;;;;4937434;29;20027;-88
2022/04/16 12:46:06;;;;;;;1.67;1.17;;;17.90;46.70;;;;;;4954536;28;20031;-88
2022/04/16 12:48:32;;;;;;;1.20;1.00;;;17.90;47.00;;;;;;4954719;28;20496;-89
2022/04/16 12:50:57;;;;;;;0.98;0.90;;;18.00;47.20;;;;;;4938022;29;20035;-89
2022/04/16 12:53:24;;;;;;;1.45;1.00;;;17.90;46.80;;;;;;4940660;29;20118;-88
2022/04/16 12:55:50;;;;;;;1.42;0.80;;;17.90;46.70;;;;;;4955800;28;20035;-90
2022/04/16 12:58:16;;;;;;;2.20;0.93;;;18.10;47.70;;;;;;4958365;28;20487;-89
2022/04/16 13:00:42;;;;;;;4.00;1.00;;;18.40;47.10;;;;;;4940878;29;20027;-86
2022/04/16 13:03:08;;;;;;;1.40;0.90;;;18.50;45.60;;;;;;4940321;28;20036;-88
2022/04/16 13:05:36;;;;;;;1.35;0.98;;;18.50;45.90;;;;;;4939180;29;20019;-86
2022/04/16 13:08:05;;;;;;;1.20;1.10;;;18.80;44.70;;;;;;4937871;29;20506;-87
2022/04/16 13:10:38;;;;;;;1.38;0.88;;;19.00;44.70;;;;;;4938765;29;20039;-89
2022/04/16 13:13:06;;;;;;;1.52;1.10;;;19.00;45.50;;;;;;4938061;29;20067;-88
2022/04/16 13:15:35;;;;;;;1.92;1.10;;;18.80;45.30;;;;;;4938312;29;20020;-89
2022/04/16 13:18:09;;;;;;;1.15;0.93;;;18.80;45.70;;;;;;4945946;29;20055;-88
2022/04/16 13:20:37;;;;;;;3.22;1.00;;;19.10;43.50;;;;;;4923929;29;20031;-88
2022/04/16 13:23:05;;;;;;;0.95;0.85;;;19.50;43.20;;;;;;4939723;29;20063;-88
2022/04/16 13:25:33;;;;;;;1.20;1.00;;;19.40;41.90;;;;;;4956963;28;20027;-87